Time;durP1;ratioP1;P1;durP2;ratioP2;P2;SDS_P1;SDS_P2;PMS_P1;PMS_P2;Temp;Humidity;BMP_temperature;BMP_pressure;BME280_temperature;BME280_humidity;BME280_pressure;Samples;Min_cycle;Max_cycle;Signal;HPM_P1;HPM_P2
2021/04/05 00:01:25;;;;;;;31.70;18.97;;;9.80;45.30;;;;;;5112298;28;20631;-52
2021/04/05 00:03:52;;;;;;;30.40;21.40;;;9.90;45.50;;;;;;5124077;27;20689;-51
2021/04/05 00:06:21;;;;;;;33.90;22.77;;;9.90;45.40;;;;;;5133200;27;20651;-52
2021/04/05 00:08:48;;;;;;;38.80;22.50;;;9.80;45.20;;;;;;5132951;27;20683;-51
2021/04/05 00:11:15;;;;;;;31.73;20.80;;;9.80;45.20;;;;;;5132527;27;21250;-53
2021/04/05 00:13:42;;;;;;;31.93;21.77;;;9.80;45.20;;;;;;5132931;27;20657;-51
2021/04/05 00:16:10;;;;;;;33.87;23.77;;;9.80;45.30;;;;;;5132794;27;20665;-54
2021/04/05 00:18:37;;;;;;;30.57;21.17;;;9.80;45.40;;;;;;5130168;27;20979;-51
2021/04/05 00:21:06;;;;;;;26.07;19.27;;;9.70;45.40;;;;;;5132368;27;20654;-51
2021/04/05 00:23:33;;;;;;;31.83;22.13;;;9.70;45.70;;;;;;5112675;28;20664;-53
2021/04/05 00:26:00;;;;;;;32.23;22.50;;;9.70;45.70;;;;;;5112621;28;21225;-52
2021/04/05 00:28:27;;;;;;;27.80;21.87;;;9.70;45.80;;;;;;5112317;28;20630;-49
2021/04/05 00:30:54;;;;;;;32.80;23.33;;;9.70;45.80;;;;;;5112262;28;20634;-51
2021/04/05 00:33:21;;;;;;;31.37;22.10;;;9.70;45.80;;;;;;5121634;27;21209;-52
2021/04/05 00:35:48;;;;;;;27.90;22.47;;;9.70;45.90;;;;;;5117326;27;20678;-53
2021/04/05 00:38:15;;;;;;;29.87;23.50;;;9.80;45.90;;;;;;5132327;27;20638;-52
2021/04/05 00:40:45;;;;;;;25.80;21.47;;;9.70;45.70;;;;;;5132595;27;20696;-53
2021/04/05 00:43:12;;;;;;;32.33;24.00;;;9.70;45.80;;;;;;5125465;27;21017;-50
2021/04/05 00:45:39;;;;;;;29.33;23.10;;;9.70;46.10;;;;;;5132820;27;20633;-54
2021/04/05 00:48:07;;;;;;;35.70;26.90;;;9.70;46.10;;;;;;5132219;27;21232;-52
2021/04/05 00:50:45;;;;;;;37.20;24.50;;;9.80;46.20;;;;;;5132047;27;20675;-52
2021/04/05 00:53:13;;;;;;;32.73;23.10;;;9.80;46.10;;;;;;5112856;28;20700;-51
2021/04/05 00:55:40;;;;;;;34.90;23.50;;;9.80;46.10;;;;;;5111552;28;20626;-52
2021/04/05 00:58:08;;;;;;;40.60;25.70;;;9.80;45.90;;;;;;5111498;28;21243;-52
2021/04/05 01:00:37;;;;;;;31.30;22.10;;;9.80;46.00;;;;;;5111724;28;20678;-53
2021/04/05 01:03:04;;;;;;;23.07;19.70;;;9.80;46.10;;;;;;5126111;28;20694;-53
2021/04/05 01:05:31;;;;;;;30.13;21.60;;;9.80;46.00;;;;;;5123187;27;20674;-52
2021/04/05 01:07:58;;;;;;;33.97;21.93;;;9.80;45.80;;;;;;5129668;27;20658;-53
2021/04/05 01:10:25;;;;;;;32.13;20.67;;;9.70;45.80;;;;;;5123900;27;20656;-54
2021/04/05 01:12:52;;;;;;;29.80;20.47;;;9.70;45.90;;;;;;5128116;28;20654;-53
2021/04/05 01:15:19;;;;;;;26.60;21.50;;;9.70;46.10;;;;;;5124404;27;20631;-53
2021/04/05 01:17:47;;;;;;;29.23;20.37;;;9.70;46.20;;;;;;5119813;27;20655;-56
2021/04/05 01:20:15;;;;;;;31.00;19.67;;;9.70;46.20;;;;;;5124205;28;20691;-53
2021/04/05 01:22:43;;;;;;;23.60;17.97;;;9.50;46.20;;;;;;5123256;28;21278;-52
2021/04/05 01:25:11;;;;;;;33.00;18.57;;;9.50;46.30;;;;;;5122841;27;20675;-52
2021/04/05 01:27:38;;;;;;;30.33;20.80;;;9.50;46.30;;;;;;5130239;27;20649;-50
2021/04/05 01:30:08;;;;;;;29.33;19.93;;;9.50;46.50;;;;;;5132253;27;21270;-51
2021/04/05 01:32:35;;;;;;;25.37;20.20;;;9.50;46.60;;;;;;5135387;27;20620;-51
2021/04/05 01:35:01;;;;;;;31.03;19.50;;;9.50;46.50;;;;;;5136107;27;20667;-52
2021/04/05 01:37:28;;;;;;;28.57;19.10;;;9.50;46.50;;;;;;5135560;27;20683;-51
2021/04/05 01:39:56;;;;;;;23.47;19.60;;;9.50;46.60;;;;;;5133813;27;21078;-52
2021/04/05 01:42:23;;;;;;;35.87;19.23;;;9.50;46.70;;;;;;5127677;27;20630;-53
2021/04/05 01:44:50;;;;;;;26.17;18.40;;;9.60;47.00;;;;;;5114017;28;20622;-52
2021/04/05 01:47:16;;;;;;;24.70;17.30;;;9.50;47.10;;;;;;5114621;27;20687;-53
2021/04/05 01:49:43;;;;;;;22.57;18.40;;;9.50;47.30;;;;;;5134200;27;20629;-52
2021/04/05 01:52:13;;;;;;;26.00;16.33;;;9.30;47.60;;;;;;5135665;27;20951;-53
2021/04/05 01:54:40;;;;;;;29.53;17.67;;;9.20;48.00;;;;;;5135674;27;21011;-52
2021/04/05 01:57:09;;;;;;;34.37;17.57;;;9.10;48.20;;;;;;5134167;27;20625;-51
2021/04/05 01:59:37;;;;;;;21.37;18.13;;;9.10;48.40;;;;;;5135352;27;20657;-50
2021/04/05 02:02:05;;;;;;;26.77;19.03;;;9.10;48.50;;;;;;5135595;27;20632;-51
2021/04/05 02:04:33;;;;;;;35.87;21.90;;;9.10;48.60;;;;;;5133936;27;20702;-50
2021/04/05 02:06:59;;;;;;;23.57;16.50;;;9.00;48.70;;;;;;5121151;27;21250;-50
2021/04/05 02:09:26;;;;;;;27.07;20.17;;;8.90;49.30;;;;;;5114430;28;20633;-51
2021/04/05 02:11:53;;;;;;;26.87;17.67;;;8.80;49.00;;;;;;5115609;27;20625;-51
2021/04/05 02:14:20;;;;;;;22.67;17.57;;;8.70;49.20;;;;;;5114536;28;20653;-52
2021/04/05 02:16:47;;;;;;;25.23;18.23;;;8.70;49.40;;;;;;5114175;27;20628;-51
2021/04/05 02:19:15;;;;;;;26.00;18.00;;;8.60;49.40;;;;;;5114506;28;20625;-52
2021/04/05 02:21:41;;;;;;;28.73;19.27;;;8.60;49.90;;;;;;5128793;27;20644;-52
2021/04/05 02:24:10;;;;;;;21.07;17.33;;;8.50;50.10;;;;;;5114581;28;20656;-52
2021/04/05 02:26:36;;;;;;;24.03;19.10;;;8.50;50.30;;;;;;5114410;28;21011;-52
2021/04/05 02:29:04;;;;;;;28.57;18.37;;;8.50;50.40;;;;;;5114152;28;21003;-53
2021/04/05 02:31:32;;;;;;;28.90;18.93;;;8.60;50.40;;;;;;5114090;28;20628;-52
2021/04/05 02:33:59;;;;;;;28.73;19.10;;;8.60;50.50;;;;;;5114474;27;20700;-52
2021/04/05 02:36:27;;;;;;;21.73;17.20;;;8.50;50.60;;;;;;5121801;27;20656;-52
2021/04/05 02:38:54;;;;;;;26.47;20.20;;;8.50;50.60;;;;;;5113535;28;20628;-52
2021/04/05 02:41:21;;;;;;;27.13;17.30;;;8.50;50.70;;;;;;5114120;28;20689;-52
2021/04/05 02:43:48;;;;;;;28.30;18.50;;;8.50;50.90;;;;;;5113681;28;20684;-53
2021/04/05 02:46:16;;;;;;;30.07;17.17;;;8.50;51.30;;;;;;5133098;27;20663;-52
2021/04/05 02:48:45;;;;;;;23.27;16.50;;;8.50;50.90;;;;;;5134493;27;20661;-52
2021/04/05 02:51:12;;;;;;;27.70;16.33;;;8.50;51.00;;;;;;5132849;27;20619;-52
2021/04/05 02:53:42;;;;;;;23.80;17.53;;;8.40;51.20;;;;;;5133629;27;20647;-52
2021/04/05 02:56:09;;;;;;;21.80;16.70;;;8.40;51.40;;;;;;5134460;27;20654;-52
2021/04/05 02:58:39;;;;;;;23.30;17.27;;;8.40;51.60;;;;;;5134219;27;20627;-52
2021/04/05 03:01:05;;;;;;;32.30;16.60;;;8.40;51.60;;;;;;5125339;27;20700;-53
2021/04/05 03:03:32;;;;;;;21.83;15.10;;;8.40;51.60;;;;;;5113888;28;21224;-52
2021/04/05 03:06:00;;;;;;;27.30;16.70;;;8.40;51.70;;;;;;5121965;27;20629;-52
2021/04/05 03:08:26;;;;;;;20.97;15.00;;;8.50;51.70;;;;;;5132949;27;20675;-52
2021/04/05 03:10:55;;;;;;;19.30;14.70;;;8.40;51.80;;;;;;5134175;27;21166;-52
2021/04/05 03:13:22;;;;;;;18.40;14.73;;;8.50;52.10;;;;;;5133807;27;21005;-52
2021/04/05 03:15:49;;;;;;;22.00;17.20;;;8.50;52.10;;;;;;5134155;27;21172;-52
2021/04/05 03:18:15;;;;;;;25.07;12.40;;;8.40;52.20;;;;;;5120805;27;20634;-52
2021/04/05 03:20:42;;;;;;;21.87;16.57;;;8.40;52.50;;;;;;5125990;27;20647;-52
2021/04/05 03:23:10;;;;;;;19.93;13.77;;;8.30;52.80;;;;;;5127066;27;20666;-53
2021/04/05 03:25:37;;;;;;;22.90;14.77;;;8.30;53.10;;;;;;5122833;27;20628;-53
2021/04/05 03:28:04;;;;;;;17.27;12.47;;;8.20;53.30;;;;;;5132384;27;20617;-52
2021/04/05 03:30:32;;;;;;;21.90;15.80;;;8.20;53.70;;;;;;5133342;27;21256;-52
2021/04/05 03:33:02;;;;;;;17.53;14.30;;;8.20;54.10;;;;;;5133281;27;20984;-53
2021/04/05 03:35:30;;;;;;;19.77;14.03;;;8.30;54.30;;;;;;5129336;27;20636;-52
2021/04/05 03:37:57;;;;;;;17.63;14.13;;;8.30;54.20;;;;;;5112475;28;20629;-51
2021/04/05 03:40:26;;;;;;;22.27;14.43;;;8.50;54.20;;;;;;5112791;28;20710;-51
2021/04/05 03:42:57;;;;;;;19.00;13.90;;;8.50;54.00;;;;;;5126788;27;20716;-51
2021/04/05 03:45:25;;;;;;;17.00;12.53;;;8.50;53.90;;;;;;5113091;27;21189;-51
2021/04/05 03:47:59;;;;;;;17.03;13.77;;;8.50;54.00;;;;;;5110509;28;21038;-52
2021/04/05 03:50:28;;;;;;;19.10;13.50;;;8.60;54.10;;;;;;5112845;28;20683;-52
2021/04/05 03:52:58;;;;;;;18.60;13.43;;;8.60;54.20;;;;;;5123361;27;20973;-51
2021/04/05 03:55:27;;;;;;;16.03;13.70;;;8.60;54.20;;;;;;5113057;28;20659;-51
2021/04/05 03:57:54;;;;;;;26.30;12.83;;;8.60;54.30;;;;;;5113251;27;20642;-52
2021/04/05 04:00:21;;;;;;;16.60;12.23;;;8.50;54.50;;;;;;5112198;28;20697;-52
2021/04/05 04:02:49;;;;;;;13.07;9.17;;;8.50;54.70;;;;;;5111783;28;20726;-52
2021/04/05 04:05:20;;;;;;;22.17;13.50;;;8.50;54.60;;;;;;5128067;27;20660;-51
2021/04/05 04:07:50;;;;;;;20.33;12.77;;;8.60;54.70;;;;;;5128794;27;20653;-51
2021/04/05 04:10:18;;;;;;;19.40;12.67;;;8.60;54.70;;;;;;5133042;27;20652;-52
2021/04/05 04:12:47;;;;;;;15.63;10.37;;;8.60;54.70;;;;;;5132865;27;20677;-52
2021/04/05 04:15:14;;;;;;;15.37;7.90;;;8.70;54.60;;;;;;5122081;27;20649;-52
2021/04/05 04:17:42;;;;;;;17.37;12.00;;;8.70;54.50;;;;;;5111834;28;21217;-52
2021/04/05 04:20:10;;;;;;;15.50;8.70;;;8.70;54.60;;;;;;5112344;28;20700;-51
2021/04/05 04:22:37;;;;;;;16.40;11.67;;;8.60;54.70;;;;;;5123974;27;20684;-53
2021/04/05 04:25:05;;;;;;;14.80;9.17;;;8.70;55.00;;;;;;5113315;27;20673;-53
2021/04/05 04:27:31;;;;;;;15.63;10.70;;;8.70;55.00;;;;;;5112037;28;20638;-52
2021/04/05 04:29:59;;;;;;;18.00;11.63;;;8.70;55.00;;;;;;5112004;28;20649;-53
2021/04/05 04:32:26;;;;;;;14.10;9.07;;;8.80;55.10;;;;;;5111779;28;20675;-52
2021/04/05 04:34:53;;;;;;;13.27;10.97;;;8.80;55.10;;;;;;5113546;28;20622;-51
2021/04/05 04:37:19;;;;;;;14.47;8.73;;;8.90;55.10;;;;;;5116552;27;20634;-50
2021/04/05 04:39:46;;;;;;;12.57;7.33;;;8.80;55.00;;;;;;5111958;28;20652;-50
2021/04/05 04:42:13;;;;;;;13.60;11.70;;;8.80;55.20;;;;;;5111927;28;20639;-52
2021/04/05 04:44:40;;;;;;;16.67;11.73;;;8.80;55.20;;;;;;5111545;28;20669;-52
2021/04/05 04:47:08;;;;;;;10.13;9.07;;;8.80;55.30;;;;;;5111637;28;20630;-52
2021/04/05 04:49:34;;;;;;;10.47;7.67;;;8.80;55.50;;;;;;5112066;28;20689;-52
2021/04/05 04:52:01;;;;;;;18.97;11.37;;;8.80;55.50;;;;;;5112602;28;21072;-50
2021/04/05 04:54:28;;;;;;;10.50;7.43;;;8.80;55.60;;;;;;5116101;28;20730;-50
2021/04/05 04:56:55;;;;;;;23.00;10.90;;;8.70;55.60;;;;;;5132193;27;20687;-51
2021/04/05 04:59:22;;;;;;;16.83;10.93;;;8.80;55.90;;;;;;5132036;27;20678;-50
2021/04/05 05:01:49;;;;;;;25.53;12.93;;;8.80;55.80;;;;;;5136267;27;21028;-50
2021/04/05 05:04:18;;;;;;;17.27;10.70;;;8.80;55.90;;;;;;5136456;27;20718;-51
2021/04/05 05:06:44;;;;;;;15.60;9.63;;;8.70;56.20;;;;;;5135291;27;20616;-51
2021/04/05 05:09:11;;;;;;;14.83;10.53;;;8.70;56.20;;;;;;5135489;27;20976;-51
2021/04/05 05:11:38;;;;;;;12.33;10.33;;;8.70;56.30;;;;;;5124766;27;20621;-52
2021/04/05 05:14:05;;;;;;;13.77;10.70;;;8.70;56.50;;;;;;5115801;28;20707;-52
2021/04/05 05:16:32;;;;;;;13.50;9.70;;;8.70;56.50;;;;;;5116096;27;20687;-52
2021/04/05 05:18:59;;;;;;;17.37;10.10;;;8.60;56.60;;;;;;5115131;28;20687;-52
2021/04/05 05:21:32;;;;;;;19.27;9.50;;;8.60;56.90;;;;;;5115798;28;20703;-52
2021/04/05 05:24:02;;;;;;;16.37;9.70;;;8.70;57.00;;;;;;5115903;27;21023;-51
2021/04/05 05:26:29;;;;;;;11.40;8.23;;;8.70;57.00;;;;;;5115482;28;20634;-52
2021/04/05 05:28:56;;;;;;;12.57;8.30;;;8.70;57.50;;;;;;5130952;27;20621;-52
2021/04/05 05:31:23;;;;;;;10.10;7.37;;;8.70;57.00;;;;;;5135827;27;20621;-52
2021/04/05 05:33:50;;;;;;;14.10;10.20;;;8.70;57.10;;;;;;5135748;27;20682;-51
2021/04/05 05:36:17;;;;;;;11.83;8.87;;;8.60;57.30;;;;;;5130967;27;20617;-52
2021/04/05 05:38:44;;;;;;;8.80;6.00;;;8.70;57.40;;;;;;5132727;27;20636;-51
2021/04/05 05:41:16;;;;;;;15.60;8.63;;;8.70;57.40;;;;;;5128294;27;20730;-51
2021/04/05 05:43:46;;;;;;;13.07;10.87;;;8.60;57.30;;;;;;5123558;27;20718;-52
2021/04/05 05:46:16;;;;;;;16.40;11.00;;;8.70;57.50;;;;;;5114790;28;20686;-51
2021/04/05 05:48:58;;;;;;;10.43;8.97;;;8.70;57.60;;;;;;5114377;28;20686;-51
2021/04/05 05:51:32;;;;;;;10.67;9.47;;;8.60;57.70;;;;;;5114989;27;20651;-52
2021/04/05 05:54:04;;;;;;;13.07;9.30;;;8.70;57.80;;;;;;5115394;28;20657;-52
2021/04/05 05:56:42;;;;;;;14.10;8.47;;;8.70;57.80;;;;;;5123027;27;21209;-51
2021/04/05 05:59:12;;;;;;;11.63;9.47;;;8.80;57.90;;;;;;5131230;27;20682;-51
2021/04/05 06:01:50;;;;;;;12.53;7.80;;;8.80;57.90;;;;;;5126855;27;20654;-51
2021/04/05 06:04:25;;;;;;;21.07;12.10;;;8.70;57.90;;;;;;5128692;27;21232;-52
2021/04/05 06:06:58;;;;;;;14.53;9.60;;;8.70;58.00;;;;;;5132609;27;20747;-52
2021/04/05 06:09:32;;;;;;;11.80;8.57;;;8.80;58.00;;;;;;5135127;27;20626;-52
2021/04/05 06:12:03;;;;;;;17.73;9.40;;;8.80;57.70;;;;;;5124491;27;20999;-52
2021/04/05 06:14:48;;;;;;;14.83;10.50;;;8.90;57.70;;;;;;5134609;27;20656;-52
2021/04/05 06:17:20;;;;;;;15.27;9.40;;;8.90;57.60;;;;;;5134173;27;20686;-52
2021/04/05 06:19:48;;;;;;;12.17;8.50;;;8.90;57.80;;;;;;5131800;27;20629;-51
2021/04/05 06:22:33;;;;;;;16.63;10.07;;;8.90;58.00;;;;;;5124802;27;20659;-51
2021/04/05 06:25:05;;;;;;;15.93;11.33;;;8.80;58.10;;;;;;5130480;27;21169;-51
2021/04/05 06:27:41;;;;;;;18.20;11.87;;;8.80;58.40;;;;;;5127644;27;20664;-52
2021/04/05 06:30:13;;;;;;;16.57;10.33;;;8.90;58.40;;;;;;5129053;27;20626;-53
2021/04/05 06:32:51;;;;;;;14.07;10.60;;;8.90;58.30;;;;;;5127174;27;20618;-51
2021/04/05 06:35:26;;;;;;;20.37;11.90;;;8.90;58.50;;;;;;5124686;27;20626;-51
2021/04/05 06:37:55;;;;;;;21.10;11.87;;;8.90;58.70;;;;;;5133266;27;20622;-52
2021/04/05 06:40:25;;;;;;;14.83;11.10;;;8.90;58.60;;;;;;5126123;27;20673;-53
2021/04/05 06:43:15;;;;;;;21.43;13.80;;;8.90;58.70;;;;;;5127434;27;20665;-51
2021/04/05 06:45:52;;;;;;;21.20;12.10;;;9.00;58.90;;;;;;5122965;27;20666;-51
2021/04/05 06:48:54;;;;;;;19.40;13.33;;;9.00;59.10;;;;;;5126744;27;20625;-51
2021/04/05 06:51:42;;;;;;;24.40;13.90;;;9.00;59.20;;;;;;5126763;27;20609;-50
2021/04/05 06:54:44;;;;;;;24.10;15.37;;;9.10;59.30;;;;;;5123070;27;20711;-51
2021/04/05 06:57:13;;;;;;;16.13;14.43;;;9.10;59.20;;;;;;5120739;27;20637;-51
2021/04/05 06:59:57;;;;;;;28.00;14.93;;;9.20;59.70;;;;;;5125681;27;20621;-51
2021/04/05 07:02:59;;;;;;;17.10;12.47;;;9.30;58.90;;;;;;5125429;27;21174;-52
2021/04/05 07:05:40;;;;;;;26.37;16.10;;;9.20;58.80;;;;;;5122599;27;20625;-52
2021/04/05 07:08:11;;;;;;;24.70;17.40;;;9.10;59.20;;;;;;5121775;27;20662;-52
2021/04/05 07:10:40;;;;;;;17.90;12.83;;;9.00;59.50;;;;;;5126185;27;20631;-52
2021/04/05 07:13:16;;;;;;;24.63;16.50;;;9.00;59.60;;;;;;5133403;27;21245;-52
2021/04/05 07:15:46;;;;;;;25.80;18.67;;;9.00;59.80;;;;;;5132317;27;20622;-52
2021/04/05 07:18:23;;;;;;;21.67;16.50;;;9.00;59.80;;;;;;5117288;27;20639;-52
2021/04/05 07:20:58;;;;;;;21.83;12.43;;;9.10;60.00;;;;;;5120610;27;20732;-51
2021/04/05 07:23:30;;;;;;;21.00;14.37;;;9.20;59.90;;;;;;5131085;27;21051;-52
2021/04/05 07:26:04;;;;;;;28.37;19.00;;;9.20;59.70;;;;;;5129167;27;20694;-53
2021/04/05 07:28:37;;;;;;;23.13;15.87;;;9.20;59.90;;;;;;5124313;27;20665;-51
2021/04/05 07:31:12;;;;;;;23.37;16.93;;;9.10;59.80;;;;;;5119516;27;20679;-52
2021/04/05 07:33:39;;;;;;;22.17;12.33;;;9.00;59.80;;;;;;5123480;27;20707;-50
2021/04/05 07:36:10;;;;;;;25.10;17.80;;;9.00;60.00;;;;;;5127020;27;20631;-52
2021/04/05 07:38:43;;;;;;;33.33;18.70;;;9.00;60.60;;;;;;5123320;27;20637;-52
2021/04/05 07:41:11;;;;;;;22.70;17.23;;;9.00;60.60;;;;;;5131342;27;20646;-53
2021/04/05 07:43:47;;;;;;;25.17;18.30;;;9.10;60.30;;;;;;5119469;27;20678;-52
2021/04/05 07:46:30;;;;;;;19.30;16.03;;;9.00;60.00;;;;;;5117561;27;21037;-52
2021/04/05 07:49:08;;;;;;;24.73;17.23;;;9.00;60.40;;;;;;5122693;27;20666;-50
2021/04/05 07:51:40;;;;;;;23.10;16.73;;;9.10;60.10;;;;;;5122390;27;21188;-51
2021/04/05 07:54:07;;;;;;;25.27;16.43;;;9.20;59.90;;;;;;5121542;27;20654;-52
2021/04/05 07:56:35;;;;;;;30.00;19.60;;;9.10;60.00;;;;;;5116014;27;21020;-52
2021/04/05 07:59:10;;;;;;;27.17;18.50;;;9.10;60.00;;;;;;5121290;27;21030;-51
2021/04/05 08:01:41;;;;;;;27.30;18.90;;;9.10;60.20;;;;;;5120598;27;21041;-51
2021/04/05 08:04:11;;;;;;;29.43;20.40;;;9.20;60.00;;;;;;5121813;27;20658;-51
2021/04/05 08:06:42;;;;;;;32.27;20.47;;;9.30;59.90;;;;;;5118802;27;20631;-51
2021/04/05 08:09:10;;;;;;;26.00;19.30;;;9.40;59.70;;;;;;5124551;27;20694;-52
2021/04/05 08:12:01;;;;;;;26.90;17.40;;;9.40;59.40;;;;;;5130688;27;20625;-53
2021/04/05 08:14:35;;;;;;;23.07;16.03;;;9.50;59.20;;;;;;5123719;27;20662;-53
2021/04/05 08:17:06;;;;;;;30.70;17.10;;;9.50;59.20;;;;;;5125267;27;20622;-53
2021/04/05 08:19:45;;;;;;;21.13;11.87;;;9.50;59.10;;;;;;5117713;27;20688;-53
2021/04/05 08:22:17;;;;;;;32.50;17.80;;;9.50;58.80;;;;;;5124849;27;20712;-55
2021/04/05 08:24:53;;;;;;;20.07;14.67;;;9.50;59.00;;;;;;5123487;27;20698;-52
2021/04/05 08:27:22;;;;;;;24.50;17.17;;;9.60;59.00;;;;;;5123561;27;20683;-53
2021/04/05 08:29:55;;;;;;;31.10;17.60;;;9.70;58.80;;;;;;5120353;27;20633;-53
2021/04/05 08:32:25;;;;;;;26.23;16.73;;;9.50;59.00;;;;;;5128534;27;21222;-53
2021/04/05 08:35:09;;;;;;;29.27;18.17;;;9.50;59.30;;;;;;5130034;27;20617;-53
2021/04/05 08:37:44;;;;;;;24.23;17.10;;;9.60;59.60;;;;;;5111001;28;20626;-52
2021/04/05 08:40:13;;;;;;;34.13;23.30;;;9.60;59.40;;;;;;5122548;28;20680;-53
2021/04/05 08:42:46;;;;;;;27.40;21.60;;;9.60;59.30;;;;;;5124341;28;20756;-52
2021/04/05 08:45:16;;;;;;;22.63;18.43;;;9.60;59.50;;;;;;5124179;28;20623;-52
2021/04/05 08:47:44;;;;;;;33.20;22.27;;;9.60;59.50;;;;;;5121693;28;20651;-53
2021/04/05 08:50:12;;;;;;;21.90;15.10;;;9.70;59.70;;;;;;5123986;27;20661;-52
2021/04/05 08:52:41;;;;;;;27.20;16.17;;;9.70;59.70;;;;;;5123671;27;20679;-53
2021/04/05 08:55:09;;;;;;;30.17;20.97;;;9.60;59.70;;;;;;5129024;27;21027;-52
2021/04/05 08:57:38;;;;;;;26.67;18.80;;;9.60;59.90;;;;;;5131247;27;20691;-53
2021/04/05 09:00:06;;;;;;;26.37;17.40;;;9.70;60.00;;;;;;5147451;27;20630;-53
2021/04/05 09:02:36;;;;;;;32.40;19.00;;;9.70;60.00;;;;;;5130292;28;21239;-52
2021/04/05 09:05:05;;;;;;;27.60;19.13;;;9.70;59.90;;;;;;5123174;27;20634;-52
2021/04/05 09:07:46;;;;;;;31.60;21.77;;;9.60;60.20;;;;;;5123677;28;20706;-52
2021/04/05 09:10:13;;;;;;;30.90;16.47;;;9.60;60.50;;;;;;5130243;28;20701;-52
2021/04/05 09:12:40;;;;;;;27.37;21.27;;;9.60;60.20;;;;;;5122813;27;20629;-53
2021/04/05 09:15:38;;;;;;;32.07;20.47;;;9.60;60.50;;;;;;5127447;27;21248;-51
2021/04/05 09:18:12;;;;;;;24.07;16.90;;;9.60;61.10;;;;;;5097197;27;20638;-52
2021/04/05 09:20:46;;;;;;;21.30;16.43;;;9.70;60.50;;;;;;5118519;27;20656;-53
2021/04/05 09:23:25;;;;;;;26.97;19.47;;;9.80;60.10;;;;;;5116562;28;20640;-52
2021/04/05 09:25:57;;;;;;;31.93;21.60;;;9.90;59.80;;;;;;5111421;28;20683;-52
2021/04/05 09:29:02;;;;;;;18.63;14.20;;;9.90;59.60;;;;;;5117111;28;20629;-52
2021/04/05 09:32:09;;;;;;;24.80;17.60;;;9.90;59.50;;;;;;5114426;27;20692;-51
2021/04/05 09:34:55;;;;;;;21.27;15.80;;;9.90;59.60;;;;;;5126430;28;21006;-51
2021/04/05 09:37:49;;;;;;;19.83;14.50;;;9.90;59.80;;;;;;5125991;28;21215;-52
2021/04/05 09:40:31;;;;;;;23.87;17.17;;;9.90;60.20;;;;;;5131703;28;20622;-52
2021/04/05 09:43:31;;;;;;;22.93;15.50;;;9.80;60.50;;;;;;5122222;28;20695;-50
2021/04/05 09:46:03;;;;;;;18.17;14.63;;;9.70;61.20;;;;;;5121351;27;21458;-52
2021/04/05 09:48:39;;;;;;;24.93;21.13;;;9.70;62.00;;;;;;5134175;27;21190;-51
2021/04/05 09:51:24;;;;;;;31.33;19.03;;;9.70;63.10;;;;;;5128362;27;20711;-51
2021/04/05 09:54:08;;;;;;;27.80;19.97;;;9.80;62.40;;;;;;5130767;27;20650;-52
2021/04/05 09:56:37;;;;;;;21.93;15.03;;;9.80;62.50;;;;;;5129285;27;20625;-52
2021/04/05 09:59:06;;;;;;;28.13;21.87;;;9.80;62.30;;;;;;5130136;27;20683;-51
2021/04/05 10:01:33;;;;;;;30.57;23.40;;;9.80;62.60;;;;;;5131194;27;20702;-52
2021/04/05 10:04:01;;;;;;;21.93;18.20;;;9.90;62.80;;;;;;5133144;27;20797;-52
2021/04/05 10:06:30;;;;;;;25.60;19.77;;;10.00;61.60;;;;;;5134408;27;20682;-51
2021/04/05 10:08:58;;;;;;;26.10;18.80;;;9.90;62.80;;;;;;5136025;27;20630;-51
2021/04/05 10:11:26;;;;;;;27.00;18.87;;;9.90;63.20;;;;;;5134712;27;20675;-50
2021/04/05 10:13:54;;;;;;;32.57;22.00;;;9.80;63.60;;;;;;5134838;27;20688;-51
2021/04/05 10:16:21;;;;;;;25.13;22.00;;;9.90;64.00;;;;;;5137447;27;20626;-50
2021/04/05 10:18:49;;;;;;;25.97;19.47;;;9.90;64.20;;;;;;5133374;27;20630;-52
2021/04/05 10:21:16;;;;;;;28.53;18.00;;;9.90;63.80;;;;;;5137553;27;20650;-50
2021/04/05 10:23:43;;;;;;;24.80;20.60;;;10.00;62.60;;;;;;5134885;27;20649;-51
2021/04/05 10:26:10;;;;;;;31.07;21.10;;;10.00;62.20;;;;;;5134757;27;20618;-51
2021/04/05 10:28:38;;;;;;;24.70;21.90;;;10.00;62.30;;;;;;5129712;27;21038;-51
2021/04/05 10:31:06;;;;;;;30.33;21.67;;;10.10;62.20;;;;;;5145198;27;20688;-52
2021/04/05 10:33:35;;;;;;;22.20;17.90;;;10.00;62.20;;;;;;5138563;27;20653;-51
2021/04/05 10:36:07;;;;;;;27.70;20.43;;;10.00;62.50;;;;;;5127408;27;20627;-51
2021/04/05 10:38:34;;;;;;;28.33;19.83;;;9.90;64.00;;;;;;5129547;27;20646;-52
2021/04/05 10:41:04;;;;;;;29.43;20.20;;;9.80;64.90;;;;;;5134994;27;20630;-52
2021/04/05 10:43:33;;;;;;;28.83;19.40;;;9.80;65.10;;;;;;5135338;27;20673;-52
2021/04/05 10:46:05;;;;;;;25.33;18.90;;;9.80;65.50;;;;;;5139072;27;20626;-53
2021/04/05 10:48:37;;;;;;;22.90;17.13;;;9.60;65.90;;;;;;5129515;27;20638;-52
2021/04/05 10:51:07;;;;;;;29.47;19.00;;;9.60;66.60;;;;;;5144731;27;20991;-50
2021/04/05 10:53:35;;;;;;;18.97;15.63;;;9.60;66.80;;;;;;5120457;27;20704;-52
2021/04/05 10:56:05;;;;;;;25.53;16.50;;;9.60;66.80;;;;;;5143790;27;20635;-52
2021/04/05 10:58:35;;;;;;;27.43;16.63;;;9.70;66.90;;;;;;5135892;27;20749;-52
2021/04/05 11:01:02;;;;;;;19.60;17.40;;;9.70;67.00;;;;;;5134560;27;20620;-52
2021/04/05 11:03:29;;;;;;;22.60;18.50;;;9.70;67.20;;;;;;5130799;27;21267;-53
2021/04/05 11:05:58;;;;;;;18.50;13.17;;;9.80;67.70;;;;;;5138515;27;21232;-52
2021/04/05 11:08:27;;;;;;;22.50;16.10;;;9.80;67.80;;;;;;5139067;27;20629;-53
2021/04/05 11:11:00;;;;;;;37.40;15.30;;;9.70;68.40;;;;;;5133731;27;21087;-53
2021/04/05 11:13:27;;;;;;;19.13;11.70;;;9.70;69.20;;;;;;5133992;27;20646;-51
2021/04/05 11:15:54;;;;;;;24.03;16.90;;;9.60;69.80;;;;;;5120150;27;20692;-52
2021/04/05 11:18:22;;;;;;;17.83;15.87;;;9.60;70.50;;;;;;5118449;27;20987;-52
2021/04/05 11:20:50;;;;;;;14.23;10.77;;;9.60;70.80;;;;;;5117319;27;20624;-51
2021/04/05 11:23:17;;;;;;;20.50;12.80;;;9.70;70.40;;;;;;5120640;27;20711;-52
2021/04/05 11:25:44;;;;;;;18.17;11.73;;;9.70;70.60;;;;;;5131530;27;21266;-52
2021/04/05 11:28:14;;;;;;;14.30;12.70;;;9.70;71.00;;;;;;5133583;27;20623;-51
2021/04/05 11:30:41;;;;;;;17.37;14.73;;;9.60;71.70;;;;;;5111967;28;20653;-51
2021/04/05 11:33:10;;;;;;;14.50;12.30;;;9.60;73.50;;;;;;5113810;27;20700;-52
2021/04/05 11:35:37;;;;;;;23.37;10.93;;;9.60;74.20;;;;;;5137705;27;20689;-51
2021/04/05 11:38:05;;;;;;;18.07;14.73;;;9.50;75.40;;;;;;5121178;27;20626;-51
2021/04/05 11:40:32;;;;;;;12.57;10.50;;;9.30;78.20;;;;;;5123074;27;20615;-52
2021/04/05 11:43:00;;;;;;;17.23;13.13;;;9.20;80.20;;;;;;5134441;27;21279;-52
2021/04/05 11:45:32;;;;;;;20.93;12.27;;;9.10;81.60;;;;;;5132991;27;20638;-51
2021/04/05 11:48:02;;;;;;;20.70;15.60;;;9.00;83.30;;;;;;5134807;27;20654;-51
2021/04/05 11:50:29;;;;;;;22.33;16.43;;;8.90;85.40;;;;;;5133885;27;21218;-51
2021/04/05 11:52:57;;;;;;;20.60;14.63;;;8.70;86.60;;;;;;5122567;27;20669;-50
2021/04/05 11:55:28;;;;;;;18.33;15.40;;;8.60;89.10;;;;;;5128455;27;20637;-51
2021/04/05 11:57:57;;;;;;;13.83;10.43;;;8.50;88.70;;;;;;5118883;27;21201;-52
2021/04/05 12:00:29;;;;;;;19.60;13.90;;;8.40;89.70;;;;;;5125130;27;20630;-51
2021/04/05 12:03:06;;;;;;;17.20;14.23;;;8.40;90.30;;;;;;5123108;27;20670;-51
2021/04/05 12:05:35;;;;;;;16.40;12.73;;;8.40;90.50;;;;;;5118400;27;21076;-53
2021/04/05 12:08:10;;;;;;;17.67;13.30;;;8.40;91.00;;;;;;5129395;27;20630;-51
2021/04/05 12:10:38;;;;;;;15.80;12.60;;;8.50;91.10;;;;;;5121932;27;21193;-51
2021/04/05 12:13:08;;;;;;;13.00;11.10;;;8.50;91.00;;;;;;5126208;27;20719;-50
2021/04/05 12:15:34;;;;;;;16.43;12.60;;;8.60;91.10;;;;;;5130839;27;21226;-52
2021/04/05 12:18:01;;;;;;;17.27;13.20;;;8.60;91.30;;;;;;5124489;27;20618;-51
2021/04/05 12:20:29;;;;;;;20.63;11.80;;;8.70;91.90;;;;;;5124311;27;20634;-52
2021/04/05 12:22:59;;;;;;;15.20;10.00;;;8.70;91.90;;;;;;5121162;27;20780;-52
2021/04/05 12:25:29;;;;;;;16.67;10.20;;;8.70;92.30;;;;;;5123255;27;20666;-52
2021/04/05 12:28:00;;;;;;;9.40;8.07;;;8.60;92.20;;;;;;5128564;27;20626;-52
2021/04/05 12:30:28;;;;;;;7.47;6.30;;;8.60;92.00;;;;;;5126020;27;20634;-53
2021/04/05 12:32:55;;;;;;;10.13;7.87;;;8.60;91.90;;;;;;5119133;27;20666;-52
2021/04/05 12:35:23;;;;;;;7.50;5.70;;;8.60;92.20;;;;;;5120278;27;21250;-52
2021/04/05 12:37:54;;;;;;;7.37;5.47;;;8.60;92.30;;;;;;5119542;27;20686;-52
2021/04/05 12:40:23;;;;;;;6.33;4.30;;;8.70;92.10;;;;;;5119982;27;20630;-53
2021/04/05 12:42:50;;;;;;;4.53;2.87;;;8.80;91.20;;;;;;5122628;27;20726;-52
2021/04/05 12:45:17;;;;;;;2.40;1.93;;;8.70;89.40;;;;;;5118491;27;21029;-51
2021/04/05 12:47:44;;;;;;;2.27;2.00;;;8.60;89.30;;;;;;5122925;27;20611;-53
2021/04/05 12:50:13;;;;;;;4.30;1.60;;;8.50;88.50;;;;;;5125273;27;20971;-52
2021/04/05 12:52:41;;;;;;;2.33;2.13;;;8.50;88.40;;;;;;5120017;28;20976;-53
2021/04/05 12:55:10;;;;;;;2.47;1.60;;;8.50;88.60;;;;;;5128825;27;20695;-52